Farrar, Iowa
Current Conditions -  °F | °C
As of 9:15 PM on Saturday 22 Nov 2014 (Local Time) from KIKV Reporting Station
Overcast Overcast  
Wind Chill: 54°   Ceiling: 1500
Heat Index: 54°   Visibility: 10mi
Dew Point: 52°   Wind: 13mph
Humidity: 94%   Direction: 180°S
Pressure: 29.66"   Gusts: NA
Location:  41.8542°N, 93.4051°W
Report Text: KIKV 230315Z AUTO 18011KT 10SM BKN015 BKN033 OVC040 12/11 A2966 RMK AO2
Loading
Personal Weather Stations






























Interactive Weather Map New forecast layout! Learn more

10-Day Weather Forecast

Advertisements
Track Severe Weather on mobile